Time;durP1;ratioP1;P1;durP2;ratioP2;P2;SDS_P1;SDS_P2;PMS_P1;PMS_P2;Temp;Humidity;BMP_temperature;BMP_pressure;BME280_temperature;BME280_humidity;BME280_pressure;Samples;Min_cycle;Max_cycle;Signal;HPM_P1;HPM_P2
2022/12/24 00:00:20;;;;;;;13.88;1.80;;;;;;;;;;5059916;28;20094;-78
2022/12/24 00:02:46;;;;;;;13.73;3.00;;;;;;;;;;5056828;28;20020;-79
2022/12/24 00:05:12;;;;;;;13.48;2.20;;;;;;;;;;5058621;28;20115;-79
2022/12/24 00:07:38;;;;;;;18.02;2.92;;;;;;;;;;5059463;28;20107;-79
2022/12/24 00:10:04;;;;;;;8.75;2.08;;;;;;;;;;5060706;28;20025;-79
2022/12/24 00:12:30;;;;;;;15.32;2.17;;;;;;;;;;5059830;28;20020;-79
2022/12/24 00:14:55;;;;;;;9.90;1.58;;;;;;;;;;5068053;28;20040;-79
2022/12/24 00:17:20;;;;;;;18.02;2.20;;;;;;;;;;5048575;28;20163;-79
2022/12/24 00:19:46;;;;;;;13.10;2.33;;;;;;;;;;5055697;28;20396;-80
2022/12/24 00:22:11;;;;;;;15.05;2.35;;;;;;;;;;5062181;28;20021;-79
2022/12/24 00:24:37;;;;;;;13.30;1.98;;;;;;;;;;5076366;28;20384;-79
2022/12/24 00:27:04;;;;;;;12.90;1.88;;;;;;;;;;5067580;28;20044;-79
2022/12/24 00:29:29;;;;;;;12.02;2.67;;;;;;;;;;5063641;28;20132;-79
2022/12/24 00:31:55;;;;;;;14.75;2.15;;;;;;;;;;5067778;28;21396;-80
2022/12/24 00:34:22;;;;;;;16.33;2.25;;;;;;;;;;5065551;28;20495;-80
2022/12/24 00:36:48;;;;;;;11.40;2.13;;;;;;;;;;5066695;28;20040;-80
2022/12/24 00:39:13;;;;;;;13.63;2.35;;;;;;;;;;5060596;28;20396;-79
2022/12/24 00:41:39;;;;;;;16.48;2.88;;;;;;;;;;5066114;28;20025;-79
2022/12/24 00:44:08;;;;;;;17.55;3.22;;;;;;;;;;5068994;28;20488;-80
2022/12/24 00:46:34;;;;;;;14.70;2.63;;;;;;;;;;5062591;28;20052;-80
2022/12/24 00:49:00;;;;;;;15.13;2.00;;;;;;;;;;5069362;28;20036;-79
2022/12/24 00:51:26;;;;;;;17.85;2.72;;;;;;;;;;5062579;28;20449;-80
2022/12/24 00:53:52;;;;;;;10.55;2.10;;;;;;;;;;5060633;28;20024;-80
2022/12/24 00:56:18;;;;;;;12.52;1.98;;;;;;;;;;5067801;28;20040;-80
2022/12/24 00:58:43;;;;;;;13.52;2.17;;;;;;;;;;5070135;28;20438;-80
2022/12/24 01:01:09;;;;;;;16.55;2.75;;;;;;;;;;5065128;28;20021;-80
2022/12/24 01:03:34;;;;;;;17.23;2.90;;;;;;;;;;5058761;28;20495;-79
2022/12/24 01:06:08;;;;;;;18.48;3.53;;;;;;;;;;5061919;28;20036;-80
2022/12/24 01:08:34;;;;;;;12.70;2.40;;;;;;;;;;5065519;28;20145;-80
2022/12/24 01:11:01;;;;;;;14.02;2.63;;;;;;;;;;5061340;28;20041;-80
2022/12/24 01:13:27;;;;;;;18.65;2.58;;;;;;;;;;5067568;28;20043;-80
2022/12/24 01:15:53;;;;;;;19.13;2.88;;;;;;;;;;5062005;28;20021;-79
2022/12/24 01:18:18;;;;;;;10.88;2.17;;;;;;;;;;5061991;28;20492;-80
2022/12/24 01:20:44;;;;;;;15.57;2.47;;;;;;;;;;5057591;28;20016;-79
2022/12/24 01:23:10;;;;;;;17.00;2.83;;;;;;;;;;5066554;28;20044;-80
2022/12/24 01:25:38;;;;;;;14.27;2.38;;;;;;;;;;5075205;28;20361;-80
2022/12/24 01:28:04;;;;;;;17.83;2.95;;;;;;;;;;5062339;28;20032;-79
2022/12/24 01:30:31;;;;;;;17.70;2.72;;;;;;;;;;5065230;28;20024;-80
2022/12/24 01:32:56;;;;;;;13.27;3.20;;;;;;;;;;5064595;28;20031;-80
2022/12/24 01:35:22;;;;;;;14.82;2.70;;;;;;;;;;5058191;28;20036;-80
2022/12/24 01:37:47;;;;;;;13.45;2.47;;;;;;;;;;5066610;28;20036;-79
2022/12/24 01:45:53;;;;;;;17.73;3.15;;;;;;;;;;5064620;28;20035;-80
2022/12/24 01:48:33;;;;;;;9.32;1.70;;;;;;;;;;5066329;28;21633;-80
2022/12/24 01:51:14;;;;;;;12.50;1.88;;;;;;;;;;5060909;28;20024;-80
2022/12/24 01:53:44;;;;;;;14.27;2.60;;;;;;;;;;5058154;28;21735;-80
2022/12/24 01:56:11;;;;;;;19.13;2.95;;;;;;;;;;5064373;28;20028;-80
2022/12/24 01:58:38;;;;;;;16.20;2.95;;;;;;;;;;5061692;28;20074;-80
2022/12/24 02:01:03;;;;;;;12.65;2.08;;;;;;;;;;5066884;28;20032;-80
2022/12/24 02:03:29;;;;;;;14.07;2.28;;;;;;;;;;5057374;28;20598;-80
2022/12/24 02:05:56;;;;;;;15.27;2.92;;;;;;;;;;5065436;28;20031;-80
2022/12/24 02:08:22;;;;;;;16.67;2.08;;;;;;;;;;5061345;28;20044;-80
2022/12/24 02:10:48;;;;;;;14.73;2.05;;;;;;;;;;5062236;28;20041;-80
2022/12/24 02:13:17;;;;;;;13.07;1.88;;;;;;;;;;5060546;28;20477;-79
2022/12/24 02:15:48;;;;;;;11.93;2.22;;;;;;;;;;5063786;28;20496;-79
2022/12/24 02:18:25;;;;;;;13.60;2.25;;;;;;;;;;5066904;28;20081;-80
2022/12/24 02:21:20;;;;;;;14.35;2.47;;;;;;;;;;5066090;28;20025;-80
2022/12/24 02:23:57;;;;;;;12.15;1.77;;;;;;;;;;5058346;28;20039;-78
2022/12/24 02:27:00;;;;;;;11.25;2.05;;;;;;;;;;5067670;28;20139;-80
2022/12/24 02:29:51;;;;;;;15.03;2.93;;;;;;;;;;5057226;28;20119;-79
2022/12/24 02:32:25;;;;;;;14.93;2.95;;;;;;;;;;5057204;28;20094;-80
2022/12/24 02:34:57;;;;;;;13.13;2.40;;;;;;;;;;5064685;28;20542;-79
2022/12/24 02:37:30;;;;;;;12.23;2.55;;;;;;;;;;5058871;28;20097;-80
2022/12/24 02:40:21;;;;;;;14.10;2.50;;;;;;;;;;5058759;28;20017;-79
2022/12/24 02:42:55;;;;;;;22.42;2.92;;;;;;;;;;5064074;28;20047;-80
2022/12/24 02:45:24;;;;;;;12.98;2.97;;;;;;;;;;5059131;28;20032;-79
2022/12/24 02:47:52;;;;;;;15.88;3.40;;;;;;;;;;5061750;28;20449;-80
2022/12/24 02:50:17;;;;;;;19.95;3.30;;;;;;;;;;5062873;28;20028;-80
2022/12/24 02:52:45;;;;;;;18.13;3.55;;;;;;;;;;5060641;28;20024;-80
2022/12/24 02:55:23;;;;;;;12.55;2.47;;;;;;;;;;5065145;28;21063;-80
2022/12/24 02:58:20;;;;;;;18.13;3.47;;;;;;;;;;5059674;28;20031;-80
2022/12/24 03:01:17;;;;;;;13.60;2.75;;;;;;;;;;5060125;28;20095;-79
2022/12/24 03:04:15;;;;;;;16.30;3.15;;;;;;;;;;5054564;28;20385;-80
2022/12/24 03:06:59;;;;;;;15.90;2.92;;;;;;;;;;5062286;28;20170;-80
2022/12/24 03:09:33;;;;;;;17.73;3.33;;;;;;;;;;5076524;28;20038;-79
2022/12/24 03:12:12;;;;;;;17.20;2.95;;;;;;;;;;5066023;28;20495;-80
2022/12/24 03:14:40;;;;;;;20.42;3.25;;;;;;;;;;5060198;28;20028;-80
2022/12/24 03:17:07;;;;;;;15.63;2.97;;;;;;;;;;5060992;28;20025;-79
2022/12/24 03:19:34;;;;;;;15.30;3.03;;;;;;;;;;5058075;28;20538;-80
2022/12/24 03:22:02;;;;;;;11.45;2.70;;;;;;;;;;5060400;28;20024;-80
2022/12/24 03:24:27;;;;;;;15.05;2.92;;;;;;;;;;5062873;28;20032;-78
2022/12/24 03:26:52;;;;;;;20.92;3.63;;;;;;;;;;5064477;28;20048;-79
2022/12/24 03:29:19;;;;;;;12.80;2.83;;;;;;;;;;5063445;28;20028;-80
2022/12/24 03:31:47;;;;;;;15.02;3.50;;;;;;;;;;5063555;28;20141;-80
2022/12/24 03:34:14;;;;;;;14.63;2.47;;;;;;;;;;5061974;28;20046;-80
2022/12/24 03:36:40;;;;;;;12.70;2.72;;;;;;;;;;5059983;28;20028;-79
2022/12/24 03:39:06;;;;;;;17.25;3.28;;;;;;;;;;5059220;28;20074;-79
2022/12/24 03:41:31;;;;;;;13.43;3.03;;;;;;;;;;5062847;28;20033;-80
2022/12/24 03:43:57;;;;;;;16.95;2.75;;;;;;;;;;5063404;28;20082;-79
2022/12/24 03:46:22;;;;;;;19.63;3.15;;;;;;;;;;5064982;28;20037;-80
2022/12/24 03:48:48;;;;;;;15.30;2.83;;;;;;;;;;5066554;28;20033;-80
2022/12/24 03:51:18;;;;;;;13.40;3.10;;;;;;;;;;5060911;28;20387;-79
2022/12/24 03:53:43;;;;;;;14.43;3.25;;;;;;;;;;5061797;28;20027;-80
2022/12/24 03:56:08;;;;;;;24.70;3.92;;;;;;;;;;5059710;28;20028;-79
2022/12/24 03:58:34;;;;;;;17.13;2.92;;;;;;;;;;5060950;28;20109;-80
2022/12/24 04:00:59;;;;;;;15.57;3.20;;;;;;;;;;5059047;28;20025;-80
2022/12/24 04:03:24;;;;;;;18.50;3.22;;;;;;;;;;5062334;28;20519;-80
2022/12/24 04:06:08;;;;;;;17.00;2.95;;;;;;;;;;5066897;28;20064;-80
2022/12/24 04:08:34;;;;;;;15.15;2.55;;;;;;;;;;5062988;28;20434;-80
2022/12/24 04:10:59;;;;;;;15.90;3.08;;;;;;;;;;5067289;28;20024;-80
2022/12/24 04:13:25;;;;;;;16.25;3.17;;;;;;;;;;5065447;28;20036;-80
2022/12/24 04:15:59;;;;;;;15.80;2.80;;;;;;;;;;5062668;28;20058;-80
2022/12/24 04:18:25;;;;;;;17.30;3.10;;;;;;;;;;5059788;28;20082;-80
2022/12/24 04:20:50;;;;;;;13.50;3.22;;;;;;;;;;5066150;28;20022;-80
2022/12/24 04:23:16;;;;;;;18.42;3.40;;;;;;;;;;5068486;28;20028;-80
2022/12/24 04:25:41;;;;;;;15.95;3.47;;;;;;;;;;5067820;28;20568;-79
2022/12/24 04:28:07;;;;;;;22.95;3.58;;;;;;;;;;5067488;28;20033;-80
2022/12/24 04:30:32;;;;;;;15.68;3.33;;;;;;;;;;5064215;28;20025;-80
2022/12/24 04:32:57;;;;;;;14.75;3.60;;;;;;;;;;5062692;28;20845;-80
2022/12/24 04:35:23;;;;;;;17.90;3.38;;;;;;;;;;5064925;28;20036;-78
2022/12/24 04:37:48;;;;;;;14.43;3.05;;;;;;;;;;5065755;28;20464;-80
2022/12/24 04:40:13;;;;;;;13.95;3.13;;;;;;;;;;5063156;28;20025;-80
2022/12/24 04:42:39;;;;;;;12.70;3.30;;;;;;;;;;5068436;28;20035;-79
2022/12/24 04:45:05;;;;;;;16.77;3.53;;;;;;;;;;5063512;28;20032;-80
2022/12/24 04:47:30;;;;;;;11.23;3.20;;;;;;;;;;5061711;28;20027;-80
2022/12/24 04:49:55;;;;;;;15.55;3.50;;;;;;;;;;5061607;28;20020;-80
2022/12/24 04:52:21;;;;;;;20.65;3.15;;;;;;;;;;5062478;28;20056;-79
2022/12/24 04:54:46;;;;;;;16.02;3.38;;;;;;;;;;5067594;28;20063;-80
2022/12/24 04:57:11;;;;;;;18.48;3.17;;;;;;;;;;5064023;28;20033;-80
2022/12/24 04:59:37;;;;;;;19.77;3.60;;;;;;;;;;5063497;28;20037;-80
2022/12/24 05:02:02;;;;;;;15.63;3.30;;;;;;;;;;5058360;28;20072;-79
2022/12/24 05:04:27;;;;;;;13.18;2.78;;;;;;;;;;5062692;28;20029;-80
2022/12/24 05:06:53;;;;;;;13.30;3.10;;;;;;;;;;5066757;28;20035;-79
2022/12/24 05:09:18;;;;;;;18.60;3.00;;;;;;;;;;5059569;28;20028;-80
2022/12/24 05:11:44;;;;;;;16.30;3.67;;;;;;;;;;5064459;28;20021;-80
2022/12/24 05:14:09;;;;;;;17.08;3.53;;;;;;;;;;5059378;28;20025;-80
2022/12/24 05:16:34;;;;;;;18.73;3.67;;;;;;;;;;5062793;28;20066;-80
2022/12/24 05:19:00;;;;;;;18.90;3.22;;;;;;;;;;5059540;28;20720;-79
2022/12/24 05:21:25;;;;;;;15.10;3.05;;;;;;;;;;5061916;28;20044;-81
2022/12/24 05:26:43;;;;;;;18.13;3.03;;;;;;;;;;5064783;28;20055;-80
2022/12/24 05:29:11;;;;;;;17.15;3.35;;;;;;;;;;5064182;28;20119;-80
2022/12/24 05:31:38;;;;;;;17.02;4.05;;;;;;;;;;5062949;28;20052;-80
2022/12/24 05:34:04;;;;;;;20.52;3.30;;;;;;;;;;5067015;28;20020;-80
2022/12/24 05:36:30;;;;;;;15.65;3.25;;;;;;;;;;5066478;28;20091;-80
2022/12/24 05:38:55;;;;;;;18.23;3.50;;;;;;;;;;5061873;28;20488;-80
2022/12/24 05:41:21;;;;;;;18.02;3.13;;;;;;;;;;5065793;28;20028;-80
2022/12/24 05:43:47;;;;;;;17.35;3.03;;;;;;;;;;5061399;28;20024;-79
2022/12/24 05:46:14;;;;;;;14.57;3.30;;;;;;;;;;5067775;28;20020;-80
2022/12/24 05:48:40;;;;;;;17.25;3.55;;;;;;;;;;5061610;28;20029;-79
2022/12/24 05:51:08;;;;;;;21.08;3.72;;;;;;;;;;5066415;28;20438;-79
2022/12/24 05:53:34;;;;;;;15.30;3.30;;;;;;;;;;5066293;28;20027;-80
2022/12/24 05:56:04;;;;;;;10.95;3.33;;;;;;;;;;5068008;28;20040;-80
2022/12/24 05:58:29;;;;;;;15.70;3.20;;;;;;;;;;5059187;28;20032;-79
2022/12/24 06:00:54;;;;;;;15.60;3.30;;;;;;;;;;5060764;28;20020;-80
2022/12/24 06:03:20;;;;;;;15.20;3.53;;;;;;;;;;5063061;28;20043;-79
2022/12/24 06:05:45;;;;;;;12.90;3.17;;;;;;;;;;5065243;28;20081;-79
2022/12/24 06:08:10;;;;;;;14.35;3.50;;;;;;;;;;5067448;28;20029;-80
2022/12/24 06:10:36;;;;;;;19.17;3.63;;;;;;;;;;5061421;28;20017;-80
2022/12/24 06:13:01;;;;;;;15.52;3.20;;;;;;;;;;5061923;28;20051;-79
2022/12/24 06:15:26;;;;;;;12.20;3.38;;;;;;;;;;5055340;28;20036;-80
2022/12/24 06:17:52;;;;;;;18.33;4.00;;;;;;;;;;5058224;28;20032;-80
2022/12/24 06:20:17;;;;;;;15.43;3.20;;;;;;;;;;5060460;28;21780;-80
2022/12/24 06:22:42;;;;;;;17.10;3.65;;;;;;;;;;5061073;28;20070;-80
2022/12/24 06:25:08;;;;;;;15.98;3.35;;;;;;;;;;5058235;28;20028;-80
2022/12/24 06:27:33;;;;;;;14.90;3.33;;;;;;;;;;5064505;28;20051;-79
2022/12/24 06:29:59;;;;;;;14.23;3.60;;;;;;;;;;5055559;28;20036;-78
2022/12/24 06:32:24;;;;;;;16.27;3.30;;;;;;;;;;5063465;28;20021;-80
2022/12/24 06:34:49;;;;;;;15.75;3.10;;;;;;;;;;5064038;28;20365;-79
2022/12/24 06:37:17;;;;;;;18.73;3.55;;;;;;;;;;5064513;28;20477;-80
2022/12/24 06:39:44;;;;;;;14.95;3.75;;;;;;;;;;5062389;28;20151;-80
2022/12/24 06:42:10;;;;;;;15.38;3.13;;;;;;;;;;5061378;28;20082;-80
2022/12/24 06:44:35;;;;;;;17.25;3.50;;;;;;;;;;5067065;28;20028;-80
2022/12/24 06:47:01;;;;;;;17.60;3.72;;;;;;;;;;5064798;28;20068;-79
2022/12/24 06:49:26;;;;;;;16.90;3.33;;;;;;;;;;5063060;28;20044;-80
2022/12/24 06:51:52;;;;;;;17.02;3.53;;;;;;;;;;5065955;28;20028;-79
2022/12/24 06:54:17;;;;;;;10.20;2.35;;;;;;;;;;5065929;28;20476;-80
2022/12/24 06:56:42;;;;;;;13.65;3.25;;;;;;;;;;5067384;28;20063;-80
2022/12/24 06:59:07;;;;;;;16.48;3.80;;;;;;;;;;5060014;28;20111;-80
2022/12/24 07:01:33;;;;;;;16.08;3.67;;;;;;;;;;5062656;28;20044;-80
2022/12/24 07:03:58;;;;;;;16.75;3.33;;;;;;;;;;5057266;28;20028;-79
2022/12/24 07:06:27;;;;;;;22.77;4.25;;;;;;;;;;5064814;28;20028;-80
2022/12/24 07:08:52;;;;;;;14.77;3.08;;;;;;;;;;5052677;28;20035;-79
2022/12/24 07:11:18;;;;;;;11.60;3.13;;;;;;;;;;5062545;28;20407;-80
2022/12/24 07:13:44;;;;;;;18.92;3.88;;;;;;;;;;5061860;28;20472;-79
2022/12/24 07:16:10;;;;;;;14.50;3.13;;;;;;;;;;5077311;28;20024;-80
2022/12/24 07:18:35;;;;;;;17.48;4.18;;;;;;;;;;5064068;28;20119;-78
2022/12/24 07:21:03;;;;;;;15.40;3.90;;;;;;;;;;5055177;28;20021;-79
2022/12/24 07:23:30;;;;;;;13.48;3.40;;;;;;;;;;5057323;28;20056;-80
2022/12/24 07:25:59;;;;;;;15.57;2.90;;;;;;;;;;5062645;28;20509;-80
2022/12/24 07:28:24;;;;;;;13.98;3.47;;;;;;;;;;5057889;28;20023;-79
2022/12/24 07:30:50;;;;;;;15.98;3.17;;;;;;;;;;5056943;28;20040;-80
2022/12/24 07:33:15;;;;;;;15.40;3.42;;;;;;;;;;5063111;28;20070;-80
2022/12/24 07:35:40;;;;;;;20.95;3.80;;;;;;;;;;5056356;28;20024;-80
2022/12/24 07:38:06;;;;;;;14.40;3.22;;;;;;;;;;5059945;28;20119;-79
2022/12/24 07:40:33;;;;;;;15.25;3.50;;;;;;;;;;5064715;28;20021;-79
2022/12/24 07:42:58;;;;;;;16.52;2.95;;;;;;;;;;5064717;28;20123;-79
2022/12/24 07:45:24;;;;;;;19.15;3.80;;;;;;;;;;5064887;28;20165;-80
2022/12/24 07:47:49;;;;;;;11.48;3.10;;;;;;;;;;5055225;28;20028;-80
2022/12/24 07:50:14;;;;;;;19.08;3.20;;;;;;;;;;5056436;28;20024;-79
2022/12/24 07:52:40;;;;;;;14.75;2.83;;;;;;;;;;5063031;28;20106;-80
2022/12/24 07:55:05;;;;;;;16.15;3.45;;;;;;;;;;5064890;28;20070;-80
2022/12/24 07:57:31;;;;;;;17.75;3.45;;;;;;;;;;5070856;28;20036;-81
2022/12/24 07:59:56;;;;;;;16.05;2.80;;;;;;;;;;5068681;28;20024;-81
2022/12/24 08:02:21;;;;;;;18.95;3.40;;;;;;;;;;5064043;28;20075;-80
2022/12/24 08:04:47;;;;;;;19.25;3.30;;;;;;;;;;5069066;28;20373;-81
2022/12/24 08:07:12;;;;;;;14.77;3.08;;;;;;;;;;5069415;28;20528;-80
2022/12/24 08:09:38;;;;;;;18.70;3.95;;;;;;;;;;5067926;28;20032;-81
2022/12/24 08:12:04;;;;;;;14.75;3.40;;;;;;;;;;5066035;28;20034;-81
2022/12/24 08:14:30;;;;;;;20.50;3.75;;;;;;;;;;5069411;28;20032;-80
2022/12/24 08:16:56;;;;;;;19.17;3.38;;;;;;;;;;5068932;28;20037;-81
2022/12/24 08:19:21;;;;;;;15.70;3.50;;;;;;;;;;5062371;28;20587;-80
2022/12/24 08:21:46;;;;;;;15.88;3.65;;;;;;;;;;5068964;28;20024;-81
2022/12/24 08:24:12;;;;;;;21.13;3.90;;;;;;;;;;5070218;28;20028;-81
2022/12/24 08:26:37;;;;;;;16.45;3.35;;;;;;;;;;5065696;28;20051;-80
2022/12/24 08:29:04;;;;;;;16.17;3.30;;;;;;;;;;5059949;28;20077;-80
2022/12/24 08:31:36;;;;;;;18.08;3.50;;;;;;;;;;5064206;28;20032;-80
2022/12/24 08:34:03;;;;;;;14.48;3.55;;;;;;;;;;5066789;28;20028;-81
2022/12/24 08:36:28;;;;;;;18.40;3.78;;;;;;;;;;5063515;28;20032;-81
2022/12/24 08:38:53;;;;;;;30.70;4.93;;;;;;;;;;5065351;28;20039;-79
2022/12/24 08:41:19;;;;;;;19.10;3.97;;;;;;;;;;5067419;28;20021;-80
2022/12/24 08:43:44;;;;;;;18.75;3.88;;;;;;;;;;5064607;28;20029;-80
2022/12/24 08:46:09;;;;;;;16.35;3.58;;;;;;;;;;5061811;28;20025;-80
2022/12/24 08:48:35;;;;;;;14.25;3.63;;;;;;;;;;5063846;28;20024;-80
2022/12/24 08:51:06;;;;;;;18.65;4.07;;;;;;;;;;5065520;28;20078;-80
2022/12/24 08:53:38;;;;;;;22.25;4.43;;;;;;;;;;5065867;28;20060;-80
2022/12/24 08:56:05;;;;;;;18.65;4.30;;;;;;;;;;5060064;28;20370;-80
2022/12/24 08:58:31;;;;;;;13.25;3.85;;;;;;;;;;5064903;28;20024;-80
2022/12/24 09:00:57;;;;;;;17.67;4.20;;;;;;;;;;5069834;28;20027;-80
2022/12/24 09:03:22;;;;;;;18.88;4.00;;;;;;;;;;5062597;28;20037;-81
2022/12/24 09:05:47;;;;;;;18.10;4.28;;;;;;;;;;5069199;28;20033;-80
2022/12/24 09:08:13;;;;;;;13.75;4.22;;;;;;;;;;5066579;28;20032;-81
2022/12/24 09:10:38;;;;;;;15.55;3.92;;;;;;;;;;5058967;28;20024;-81
2022/12/24 09:13:03;;;;;;;20.95;4.78;;;;;;;;;;5063233;28;20116;-80
2022/12/24 09:15:29;;;;;;;17.50;3.80;;;;;;;;;;5064397;28;20016;-81
2022/12/24 09:17:54;;;;;;;15.32;4.03;;;;;;;;;;5057784;28;20060;-81
2022/12/24 09:20:20;;;;;;;16.65;4.47;;;;;;;;;;5063967;28;20028;-80
2022/12/24 09:22:45;;;;;;;14.52;4.43;;;;;;;;;;5063360;28;20086;-80
2022/12/24 09:25:10;;;;;;;17.13;3.80;;;;;;;;;;5065443;28;20037;-81
2022/12/24 09:27:36;;;;;;;25.95;4.53;;;;;;;;;;5062638;28;20044;-81
2022/12/24 09:30:04;;;;;;;20.88;3.85;;;;;;;;;;5066670;28;20106;-81
2022/12/24 09:32:29;;;;;;;16.55;3.70;;;;;;;;;;5064028;28;20036;-80
2022/12/24 09:34:54;;;;;;;17.38;4.00;;;;;;;;;;5065607;28;20080;-80
2022/12/24 09:37:20;;;;;;;18.00;3.95;;;;;;;;;;5067694;28;20066;-81
2022/12/24 09:39:45;;;;;;;18.60;3.63;;;;;;;;;;5062205;28;20528;-80
2022/12/24 09:42:35;;;;;;;14.27;3.40;;;;;;;;;;5060803;28;20024;-79
2022/12/24 09:45:32;;;;;;;15.93;3.95;;;;;;;;;;5063117;28;20031;-80
2022/12/24 09:48:13;;;;;;;17.30;3.80;;;;;;;;;;5059952;28;20553;-80
2022/12/24 09:50:50;;;;;;;19.60;4.40;;;;;;;;;;5063137;28;20468;-80
2022/12/24 09:53:37;;;;;;;15.25;4.28;;;;;;;;;;5066404;28;20028;-80
2022/12/24 09:56:10;;;;;;;14.55;3.60;;;;;;;;;;5064631;28;20024;-81
2022/12/24 09:58:47;;;;;;;19.23;4.55;;;;;;;;;;5067879;28;20032;-81
2022/12/24 10:01:15;;;;;;;16.08;3.88;;;;;;;;;;5066076;28;20028;-81
2022/12/24 10:03:41;;;;;;;20.92;3.78;;;;;;;;;;5068476;28;20055;-81
2022/12/24 10:06:13;;;;;;;15.95;3.60;;;;;;;;;;5060078;28;20074;-80
2022/12/24 10:08:47;;;;;;;13.27;4.80;;;;;;;;;;5051025;28;20032;-80
2022/12/24 10:11:28;;;;;;;17.70;4.07;;;;;;;;;;5057730;28;20029;-80
2022/12/24 10:14:12;;;;;;;17.92;4.80;;;;;;;;;;5058006;28;20907;-79
2022/12/24 10:16:37;;;;;;;15.60;3.72;;;;;;;;;;5059832;28;20039;-80
2022/12/24 10:19:22;;;;;;;18.05;4.47;;;;;;;;;;5059544;28;20032;-80
2022/12/24 10:21:53;;;;;;;19.25;3.78;;;;;;;;;;5059116;28;20024;-81
2022/12/24 10:24:27;;;;;;;14.45;3.67;;;;;;;;;;5060678;28;20047;-81
2022/12/24 10:27:10;;;;;;;15.38;4.28;;;;;;;;;;5055772;28;20592;-80
2022/12/24 10:29:41;;;;;;;;;;;;;;;;;;5073954;28;20040;-80
2022/12/24 10:32:18;;;;;;;18.52;4.13;;;;;;;;;;5052457;28;19920;-80
2022/12/24 10:34:48;;;;;;;11.77;3.22;;;;;;;;;;5053241;28;20499;-80
2022/12/24 10:37:19;;;;;;;25.25;4.30;;;;;;;;;;5057378;28;20515;-81
2022/12/24 10:39:45;;;;;;;18.02;4.03;;;;;;;;;;5067997;28;20051;-81
2022/12/24 10:42:12;;;;;;;20.05;3.78;;;;;;;;;;5055700;28;20028;-81
2022/12/24 10:44:37;;;;;;;15.98;3.72;;;;;;;;;;5055875;28;20568;-81
2022/12/24 10:47:07;;;;;;;15.88;3.42;;;;;;;;;;5058303;28;20093;-81
2022/12/24 10:49:44;;;;;;;19.13;4.03;;;;;;;;;;5063269;28;20476;-80
2022/12/24 10:52:16;;;;;;;11.65;2.75;;;;;;;;;;5055053;28;20452;-80
2022/12/24 10:55:04;;;;;;;17.52;3.20;;;;;;;;;;5056913;28;20094;-80
2022/12/24 10:57:30;;;;;;;13.02;2.97;;;;;;;;;;5060669;28;20801;-81
2022/12/24 10:59:56;;;;;;;17.48;3.28;;;;;;;;;;5059783;28;20033;-81
2022/12/24 11:02:34;;;;;;;15.93;3.63;;;;;;;;;;5058235;28;20025;-81
2022/12/24 11:05:04;;;;;;;20.40;4.00;;;;;;;;;;5056970;28;20032;-81
2022/12/24 11:07:30;;;;;;;17.90;3.65;;;;;;;;;;5052449;28;20086;-81
2022/12/24 11:09:59;;;;;;;12.93;4.10;;;;;;;;;;5053042;28;20115;-80
2022/12/24 11:12:33;;;;;;;21.88;4.85;;;;;;;;;;5061151;28;20032;-81
2022/12/24 11:15:07;;;;;;;14.48;3.40;;;;;;;;;;5060871;28;20032;-80
2022/12/24 11:17:33;;;;;;;15.65;3.22;;;;;;;;;;5066381;28;20160;-81
2022/12/24 11:19:59;;;;;;;14.95;3.65;;;;;;;;;;5055894;28;20032;-81
2022/12/24 11:22:30;;;;;;;16.50;3.53;;;;;;;;;;5058004;28;20036;-81
2022/12/24 11:25:27;;;;;;;12.23;3.42;;;;;;;;;;5058811;28;20392;-81
2022/12/24 11:27:54;;;;;;;17.30;3.88;;;;;;;;;;5060885;28;20078;-81
2022/12/24 11:30:19;;;;;;;22.75;4.43;;;;;;;;;;5059606;28;20037;-81
2022/12/24 11:32:48;;;;;;;16.90;3.25;;;;;;;;;;5059821;28;20036;-81
2022/12/24 11:35:22;;;;;;;19.33;4.35;;;;;;;;;;5058066;28;20035;-79
2022/12/24 11:38:07;;;;;;;14.27;2.78;;;;;;;;;;5058288;28;20017;-81
2022/12/24 11:40:42;;;;;;;13.63;3.78;;;;;;;;;;5053576;28;20021;-81
2022/12/24 11:43:15;;;;;;;16.40;4.38;;;;;;;;;;5058073;28;20028;-80
2022/12/24 11:45:56;;;;;;;19.25;3.33;;;;;;;;;;5044279;28;20036;-80
2022/12/24 11:48:33;;;;;;;19.83;3.10;;;;;;;;;;5041542;28;20051;-81
2022/12/24 11:51:17;;;;;;;18.58;3.33;;;;;;;;;;5045768;28;20033;-81
2022/12/24 11:54:05;;;;;;;14.40;2.80;;;;;;;;;;5055492;28;20060;-81
2022/12/24 11:56:37;;;;;;;15.73;3.20;;;;;;;;;;5047221;28;20036;-79
2022/12/24 11:59:25;;;;;;;17.33;3.22;;;;;;;;;;5044618;28;20455;-80
2022/12/24 12:01:57;;;;;;;11.98;2.88;;;;;;;;;;5038260;28;20170;-81
2022/12/24 12:04:35;;;;;;;19.35;3.72;;;;;;;;;;5049279;28;20120;-79
2022/12/24 12:07:04;;;;;;;16.95;3.13;;;;;;;;;;5050178;28;20040;-81
2022/12/24 12:09:34;;;;;;;11.45;2.40;;;;;;;;;;5045427;28;20024;-80
2022/12/24 12:12:15;;;;;;;16.48;3.10;;;;;;;;;;5054040;28;20566;-81
2022/12/24 12:14:54;;;;;;;11.88;2.33;;;;;;;;;;5053996;28;20362;-80
2022/12/24 12:17:40;;;;;;;18.58;3.00;;;;;;;;;;5049367;28;20522;-81
2022/12/24 12:20:18;;;;;;;15.15;2.75;;;;;;;;;;5043744;28;20475;-78
2022/12/24 12:23:15;;;;;;;13.82;3.00;;;;;;;;;;5049576;28;20032;-79
2022/12/24 12:25:46;;;;;;;15.13;2.70;;;;;;;;;;5053769;28;21920;-81
2022/12/24 12:28:20;;;;;;;12.88;2.85;;;;;;;;;;5056035;28;20025;-81
2022/12/24 12:30:54;;;;;;;10.57;2.50;;;;;;;;;;5054551;28;20461;-79
2022/12/24 12:33:32;;;;;;;15.23;3.85;;;;;;;;;;5056183;28;20756;-81
2022/12/24 12:36:01;;;;;;;9.10;2.42;;;;;;;;;;5052099;28;20071;-80
2022/12/24 12:38:30;;;;;;;11.57;2.70;;;;;;;;;;5053035;28;20028;-80
2022/12/24 12:41:27;;;;;;;13.60;2.60;;;;;;;;;;5048512;28;20139;-80
2022/12/24 12:44:30;;;;;;;16.27;3.15;;;;;;;;;;5057423;28;20032;-81
2022/12/24 12:47:12;;;;;;;12.33;2.83;;;;;;;;;;5066330;28;20738;-80
2022/12/24 12:49:56;;;;;;;11.93;2.57;;;;;;;;;;5069566;28;20045;-81
2022/12/24 12:52:43;;;;;;;18.33;3.08;;;;;;;;;;5049265;28;20849;-86
2022/12/24 12:55:38;;;;;;;14.60;2.80;;;;;;;;;;5049143;28;20397;-82
2022/12/24 12:58:14;;;;;;;12.98;2.30;;;;;;;;;;5056256;28;20032;-84
2022/12/24 13:00:44;;;;;;;13.25;2.95;;;;;;;;;;5053494;28;20017;-85
2022/12/24 13:03:32;;;;;;;13.80;2.50;;;;;;;;;;5056873;28;20028;-85
2022/12/24 13:06:25;;;;;;;16.13;2.28;;;;;;;;;;5056880;28;20401;-85
2022/12/24 13:09:00;;;;;;;;;;;;;;;;;;5056745;28;20082;-85
2022/12/24 13:12:03;;;;;;;11.60;2.08;;;;;;;;;;5055283;28;20479;-84
2022/12/24 13:14:57;;;;;;;15.85;2.83;;;;;;;;;;5057832;28;20451;-86
2022/12/24 13:17:40;;;;;;;6.93;1.83;;;;;;;;;;5051247;28;20032;-86
2022/12/24 13:20:18;;;;;;;15.43;2.95;;;;;;;;;;5048523;28;20025;-83
2022/12/24 13:23:10;;;;;;;11.13;2.53;;;;;;;;;;5053810;28;20024;-84
2022/12/24 13:25:43;;;;;;;18.58;2.50;;;;;;;;;;5059782;28;20044;-84
2022/12/24 13:28:36;;;;;;;12.38;2.80;;;;;;;;;;5057254;28;20036;-86
2022/12/24 13:31:10;;;;;;;13.27;3.17;;;;;;;;;;5056072;28;20105;-82
2022/12/24 13:33:35;;;;;;;15.75;3.58;;;;;;;;;;5067041;28;20032;-84
2022/12/24 13:36:05;;;;;;;14.77;2.75;;;;;;;;;;5052159;28;20393;-82
2022/12/24 13:38:41;;;;;;;16.73;2.90;;;;;;;;;;5058109;28;20032;-86
2022/12/24 13:41:37;;;;;;;12.32;2.78;;;;;;;;;;5058836;28;20247;-84
2022/12/24 13:44:02;;;;;;;15.25;2.88;;;;;;;;;;5048061;28;20082;-81
2022/12/24 13:46:46;;;;;;;15.73;3.17;;;;;;;;;;5054186;28;20040;-85
2022/12/24 13:49:35;;;;;;;14.75;3.45;;;;;;;;;;5052178;28;20025;-83
2022/12/24 13:52:09;;;;;;;17.05;2.90;;;;;;;;;;5060162;28;20056;-84
2022/12/24 13:54:37;;;;;;;17.17;2.67;;;;;;;;;;5054535;28;20106;-86
2022/12/24 13:57:25;;;;;;;10.63;2.58;;;;;;;;;;5054216;28;20107;-85
2022/12/24 13:59:58;;;;;;;11.60;2.38;;;;;;;;;;5055865;28;20032;-85
2022/12/24 14:02:25;;;;;;;10.95;2.70;;;;;;;;;;5050626;28;20059;-86
2022/12/24 14:04:51;;;;;;;13.85;2.47;;;;;;;;;;5058681;28;20517;-89
2022/12/24 14:07:19;;;;;;;15.73;3.38;;;;;;;;;;5055449;28;20028;-84
2022/12/24 14:09:51;;;;;;;14.55;2.58;;;;;;;;;;5056691;28;20027;-84
2022/12/24 14:12:52;;;;;;;19.50;4.10;;;;;;;;;;5059294;28;20052;-86
2022/12/24 14:15:48;;;;;;;11.25;2.55;;;;;;;;;;5048509;28;20293;-87
2022/12/24 14:18:23;;;;;;;13.82;2.72;;;;;;;;;;5062144;28;20288;-80
2022/12/24 14:20:55;;;;;;;14.82;2.78;;;;;;;;;;5060181;28;20427;-85
2022/12/24 14:23:42;;;;;;;14.55;3.28;;;;;;;;;;5060620;28;20035;-84
2022/12/24 14:26:14;;;;;;;12.70;2.97;;;;;;;;;;5060278;28;20046;-86
2022/12/24 14:28:44;;;;;;;14.52;2.95;;;;;;;;;;5056687;28;20123;-83
2022/12/24 14:31:14;;;;;;;13.40;2.50;;;;;;;;;;5051776;28;20384;-86
2022/12/24 14:33:41;;;;;;;12.43;3.55;;;;;;;;;;5059105;28;20052;-82
2022/12/24 14:36:09;;;;;;;13.38;3.17;;;;;;;;;;5067041;28;20028;-81
2022/12/24 14:38:34;;;;;;;12.25;2.92;;;;;;;;;;5058180;28;20032;-84
2022/12/24 14:41:24;;;;;;;11.70;2.30;;;;;;;;;;5059426;28;20378;-85
2022/12/24 14:44:04;;;;;;;12.02;3.25;;;;;;;;;;5054389;28;20036;-83
2022/12/24 14:46:57;;;;;;;13.05;3.38;;;;;;;;;;5056735;28;20024;-82
2022/12/24 14:49:26;;;;;;;10.82;2.88;;;;;;;;;;5052956;28;20103;-85
2022/12/24 14:51:51;;;;;;;16.73;3.30;;;;;;;;;;5070485;28;20039;-86
2022/12/24 14:54:31;;;;;;;14.90;2.90;;;;;;;;;;5066536;28;20028;-85
2022/12/24 14:57:08;;;;;;;14.63;3.40;;;;;;;;;;5061384;28;20403;-86
2022/12/24 14:59:58;;;;;;;13.15;3.92;;;;;;;;;;5060811;28;20028;-86